Time;durP1;ratioP1;P1;durP2;ratioP2;P2;SDS_P1;SDS_P2;PMS_P1;PMS_P2;Temp;Humidity;BMP_temperature;BMP_pressure;BME280_temperature;BME280_humidity;BME280_pressure;Samples;Min_cycle;Max_cycle;Signal;HPM_P1;HPM_P2
2023/10/18 00:02:00;;;;;;;;;63.50;50.50;;;;;1.39;100.00;99892.56;6312397;20;2863788;-48
2023/10/18 00:04:28;;;;;;;;;63.50;51.00;;;;;1.35;100.00;99897.06;6279599;20;2498314;-47
2023/10/18 00:06:56;;;;;;;;;55.50;47.00;;;;;2.07;100.00;99900.75;6278783;20;2488010;-48
2023/10/18 00:09:48;;;;;;;;;55.67;45.00;;;;;1.85;100.00;99908.31;6281057;20;2878493;-48
2023/10/18 00:12:20;;;;;;;;;54.50;44.00;;;;;1.94;100.00;99894.88;6309548;20;2500396;-48
2023/10/18 00:14:51;;;;;;;;;52.33;43.00;;;;;1.25;100.00;99879.63;6282995;20;2868197;-47
2023/10/18 00:17:20;;;;;;;;;61.50;47.00;;;;;1.37;100.00;99881.13;6312040;20;2868136;-47
2023/10/18 00:19:49;;;;;;;;;60.67;46.33;;;;;1.35;100.00;99873.25;6284185;20;3603386;-47
2023/10/18 00:22:17;;;;;;;;;62.50;48.00;;;;;1.36;100.00;99882.06;6278337;20;2499379;-49
2023/10/18 00:24:45;;;;;;;;;50.50;43.00;;;;;1.43;100.00;99876.59;6282139;20;2863850;-47
2023/10/18 00:27:14;;;;;;;;;50.50;40.00;;;;;1.38;100.00;99880.25;6281254;20;2868068;-48
2023/10/18 00:29:43;;;;;;;;;60.50;46.00;;;;;0.53;100.00;99883.66;6282970;20;2868146;-47
2023/10/18 00:32:15;;;;;;;;;67.67;50.33;;;;;0.84;100.00;99889.22;6282252;20;2869199;-48
2023/10/18 00:34:44;;;;;;;;;53.67;43.67;;;;;1.13;100.00;99895.75;6313531;20;2900305;-48
2023/10/18 00:37:13;;;;;;;;;56.50;43.00;;;;;0.97;100.00;99898.69;6309320;20;2859654;-49
2023/10/18 00:39:42;;;;;;;;;45.00;39.50;;;;;1.80;100.00;99898.75;6281783;20;2844020;-47
2023/10/18 00:42:27;;;;;;;;;42.00;36.00;;;;;1.86;99.35;99902.13;6279383;20;2877477;-47
2023/10/18 00:45:08;;;;;;;;;52.33;41.67;;;;;1.21;99.05;99883.22;6280960;20;2871094;-48
2023/10/18 00:47:39;;;;;;;;;48.33;40.00;;;;;1.10;100.00;99888.75;6312949;20;3610858;-48
2023/10/18 00:50:09;;;;;;;;;46.33;39.33;;;;;1.09;100.00;99890.50;6314698;20;2862821;-48
2023/10/18 00:52:39;;;;;;;;;34.00;32.00;;;;;0.94;100.00;99889.94;6311362;20;2867012;-48
2023/10/18 00:55:12;;;;;;;;;42.33;38.33;;;;;1.23;100.00;99887.59;6313924;20;2873408;-48
2023/10/18 00:57:41;;;;;;;;;41.50;35.00;;;;;1.27;100.00;99888.41;6311899;20;2864900;-48
2023/10/18 01:00:24;;;;;;;;;36.00;32.33;;;;;1.03;100.00;99888.00;6279823;20;3611720;-48
2023/10/18 01:02:59;;;;;;;;;76.67;61.33;;;;;0.56;100.00;99881.81;6314009;20;2884787;-48
2023/10/18 01:05:28;;;;;;;;;50.50;41.00;;;;;0.77;100.00;99882.34;6312468;20;2855600;-49
2023/10/18 01:07:58;;;;;;;;;50.00;43.00;;;;;0.32;100.00;99874.34;6282610;20;2860774;-47
2023/10/18 01:10:30;;;;;;;;;59.50;44.50;;;;;0.62;100.00;99871.13;6283500;20;2865959;-48
2023/10/18 01:13:01;;;;;;;;;44.50;39.00;;;;;0.82;100.00;99864.63;6279540;20;2845132;-47
2023/10/18 01:15:31;;;;;;;;;48.50;41.00;;;;;0.71;100.00;99867.47;6281985;20;2858320;-48
2023/10/18 01:18:01;;;;;;;;;44.67;39.33;;;;;0.61;100.00;99871.19;6279057;20;2865000;-48
2023/10/18 01:23:01;;;;;;;;;40.00;38.50;;;;;0.76;100.00;99867.38;6281137;20;2869152;-47
2023/10/18 01:25:30;;;;;;;;;47.00;41.50;;;;;0.74;100.00;99866.53;6281231;20;2855658;-48
2023/10/18 01:28:00;;;;;;;;;46.33;36.67;;;;;1.01;100.00;99871.28;6280392;20;2877414;-38
2023/10/18 01:30:29;;;;;;;;;41.50;35.50;;;;;0.65;100.00;99873.72;6313881;20;2859642;-38
2023/10/18 01:33:04;;;;;;;;;40.33;38.67;;;;;-0.19;100.00;99859.28;6277530;20;2871255;-39
2023/10/18 01:35:33;;;;;;;;;44.00;35.50;;;;;-0.22;100.00;99856.69;6308262;20;2864853;-39
2023/10/18 01:38:05;;;;;;;;;49.00;44.00;;;;;-0.02;100.00;99853.75;6281083;20;2863819;-39
2023/10/18 01:40:41;;;;;;;;;62.00;52.00;;;;;0.57;100.00;99851.00;6276730;20;2500301;-38
2023/10/18 01:43:11;;;;;;;;;61.50;49.00;;;;;0.68;100.00;99856.94;6277168;20;2489873;-38
2023/10/18 01:45:42;;;;;;;;;62.00;47.50;;;;;1.26;100.00;99849.63;6279076;20;2848304;-39
2023/10/18 01:48:17;;;;;;;;;61.00;49.50;;;;;1.14;100.00;99855.19;6278604;20;2861750;-39
2023/10/18 01:50:50;;;;;;;;;63.67;52.00;;;;;0.90;100.00;99845.97;6279627;20;3591946;-39
2023/10/18 01:53:20;;;;;;;;;93.33;71.33;;;;;0.87;100.00;99841.63;6277003;20;3641011;-39
2023/10/18 01:55:54;;;;;;;;;85.00;63.00;;;;;0.96;100.00;99836.16;6309283;20;3647132;-40
2023/10/18 01:58:24;;;;;;;;;78.67;62.00;;;;;0.94;100.00;99835.28;6311209;20;2877732;-38
2023/10/18 02:01:01;;;;;;;;;87.00;66.33;;;;;0.79;100.00;99839.13;6310978;20;3655430;-38
2023/10/18 02:03:30;;;;;;;;;89.67;69.00;;;;;0.97;100.00;99852.88;6307401;20;3655498;-40
2023/10/18 02:06:06;;;;;;;;;95.00;68.00;;;;;0.97;100.00;99853.72;6309656;20;3661748;-38
2023/10/18 02:08:36;;;;;;;;;89.00;67.33;;;;;0.82;100.00;99859.34;6308106;20;2892126;-39
2023/10/18 02:11:09;;;;;;;;;84.00;65.50;;;;;0.55;100.00;99850.13;6310607;20;2670037;-39
2023/10/18 02:13:39;;;;;;;;;86.33;66.67;;;;;0.57;100.00;99851.00;6306228;20;3627390;-48
2023/10/18 02:16:19;;;;;;;;;69.00;53.00;;;;;0.55;100.00;99850.13;6304418;20;2883732;-39
2023/10/18 02:18:50;;;;;;;;;164.25;123.75;;;;;0.73;100.00;99838.38;6279341;20;3714892;-39
2023/10/18 02:21:21;;;;;;;;;159.25;129.75;;;;;0.70;100.00;99839.28;6273413;20;3724346;-39
2023/10/18 02:23:52;;;;;;;;;128.25;101.50;;;;;0.48;100.00;99833.53;6275303;20;4488980;-39
2023/10/18 02:26:31;;;;;;;;;103.33;70.67;;;;;0.88;100.00;99838.94;6273833;20;3685789;-38
2023/10/18 02:29:35;;;;;;;;;94.67;70.00;;;;;0.49;100.00;99832.63;6276833;20;3659759;-39
2023/10/18 02:32:02;;;;;;;;;82.00;59.33;;;;;0.37;100.00;99824.91;6309353;20;2886790;-38
2023/10/18 02:34:33;;;;;;;;;79.67;59.33;;;;;0.30;100.00;99833.88;6310653;20;3629450;-38
2023/10/18 02:37:04;;;;;;;;;69.50;49.50;;;;;0.54;100.00;99833.41;6300435;20;2500270;-38
2023/10/18 02:39:34;;;;;;;;;68.00;53.00;;;;;0.72;100.00;99841.91;6278724;20;2871131;-39
2023/10/18 02:42:05;;;;;;;;;67.67;51.67;;;;;0.58;100.00;99843.06;6278181;20;3621093;-38
2023/10/18 02:44:35;;;;;;;;;75.00;56.00;;;;;0.80;100.00;99847.94;6277895;20;3652335;-38
2023/10/18 02:47:22;;;;;;;;;107.00;86.00;;;;;0.62;100.00;99847.34;6306467;20;3691038;-39
2023/10/18 02:49:52;;;;;;;;;128.67;96.67;;;;;0.79;99.26;99848.81;6277123;20;3699205;-38
2023/10/18 02:52:22;;;;;;;;;97.67;69.33;;;;;0.97;98.36;99853.72;6276080;20;3672216;-38
2023/10/18 02:54:51;;;;;;;;;82.00;58.33;;;;;0.56;100.00;99854.53;6276045;20;3646156;-38
2023/10/18 02:57:21;;;;;;;;;80.00;59.33;;;;;0.44;100.00;99847.69;6306557;20;3649344;-45
2023/10/18 02:59:53;;;;;;;;;94.67;70.00;;;;;0.44;100.00;99850.34;6303101;20;3655485;-43
2023/10/18 03:02:24;;;;;;;;;106.67;78.67;;;;;0.32;100.00;99858.50;6310626;20;3695066;-44
2023/10/18 03:04:52;;;;;;;;;61.00;45.50;;;;;0.54;100.00;99858.97;6275112;20;2499236;-45
2023/10/18 03:07:22;;;;;;;;;69.50;56.00;;;;;0.10;100.00;99864.09;6276454;20;2858656;-46
2023/10/18 03:09:53;;;;;;;;;77.67;59.00;;;;;-0.04;100.00;99850.28;6277092;20;3634683;-44
2023/10/18 03:12:22;;;;;;;;;84.50;65.50;;;;;0.06;100.00;99851.00;6308083;20;2890908;-43
2023/10/18 03:14:55;;;;;;;;;78.33;56.00;;;;;0.46;100.00;99843.25;6278252;20;3636769;-44
2023/10/18 03:17:28;;;;;;;;;75.50;58.00;;;;;0.29;100.00;99843.56;6307693;20;2871090;-43
2023/10/18 03:19:57;;;;;;;;;71.00;51.50;;;;;0.47;100.00;99838.84;6272508;20;2500264;-45
2023/10/18 03:22:31;;;;;;;;;62.50;50.00;;;;;0.29;100.00;99834.75;6276718;20;2500346;-45
2023/10/18 03:25:01;;;;;;;;;79.33;57.00;;;;;0.18;100.00;99834.94;6278253;20;2896644;-43
2023/10/18 03:27:41;;;;;;;;;65.50;53.00;;;;;0.18;100.00;99835.81;6306999;20;2852487;-43
2023/10/18 03:31:20;;;;;;;;;72.67;54.67;;;;;0.09;100.00;99829.84;6280527;20;2880540;-44
2023/10/18 03:33:01;;;;;;;;;68.00;54.50;;;;;-0.13;100.00;99824.91;6307119;20;2864365;-43
2023/10/18 03:35:31;;;;;;;;;81.00;59.67;;;;;-0.07;100.00;99823.94;6276992;20;2897185;-46
2023/10/18 03:38:03;;;;;;;;;78.67;59.33;;;;;0.29;100.00;99816.28;6309788;20;3642990;-44
2023/10/18 03:40:36;;;;;;;;;74.00;54.00;;;;;0.35;100.00;99816.19;6303072;20;2500379;-44
2023/10/18 03:43:09;;;;;;;;;75.67;56.67;;;;;-0.62;100.00;99824.75;6281533;20;2879505;-44
2023/10/18 03:48:39;;;;;;;;;96.67;74.33;;;;;0.16;100.00;99821.78;6314220;20;3658593;-44
2023/10/18 03:51:20;;;;;;;;;112.33;92.33;;;;;-0.20;100.00;99827.66;6311942;20;3685787;-44
2023/10/18 03:53:53;;;;;;;;;104.67;82.67;;;;;0.33;100.00;99823.25;6279387;20;3698355;-44
2023/10/18 03:56:23;;;;;;;;;120.33;100.67;;;;;0.03;99.22;99822.00;6279505;20;3692429;-44
2023/10/18 03:59:09;;;;;;;;;112.00;93.00;;;;;-0.42;100.00;99817.44;6283896;20;3693001;-43
2023/10/18 04:01:47;;;;;;;;;98.00;73.33;;;;;-0.25;100.00;99820.69;6276657;20;3645069;-43
2023/10/18 04:04:18;;;;;;;;;88.67;65.33;;;;;0.04;100.00;99827.25;6314148;20;3654771;-44
2023/10/18 04:06:58;;;;;;;;;89.00;67.00;;;;;0.03;100.00;99819.34;6310915;20;3665900;-43
2023/10/18 04:09:30;;;;;;;;;79.50;63.00;;;;;-0.34;100.00;99828.75;6310345;20;2879593;-47
2023/10/18 04:12:00;;;;;;;;;83.33;60.33;;;;;-0.41;100.00;99826.22;6282935;20;2899469;-43
2023/10/18 04:14:29;;;;;;;;;80.33;59.67;;;;;-0.43;100.00;99820.94;6311652;20;2885736;-43
2023/10/18 04:16:58;;;;;;;;;69.50;55.00;;;;;-0.98;100.00;99826.97;6308762;20;2876551;-46
2023/10/18 04:19:27;;;;;;;;;56.67;44.33;;;;;-0.52;100.00;99827.25;6275512;20;2881732;-44
2023/10/18 04:21:57;;;;;;;;;65.50;48.50;;;;;-0.14;100.00;99838.13;6314729;20;2873397;-44
2023/10/18 04:24:28;;;;;;;;;66.00;47.50;;;;;-0.13;100.00;99832.81;6282317;20;2862775;-44
2023/10/18 04:27:02;;;;;;;;;67.67;48.33;;;;;-0.29;100.00;99841.84;6278668;20;2875597;-45
2023/10/18 04:29:33;;;;;;;;;62.33;49.00;;;;;-0.14;100.00;99838.13;6313894;20;2862823;-44
2023/10/18 04:32:03;;;;;;;;;53.50;44.00;;;;;-0.35;100.00;99844.59;6311281;20;2862443;-44
2023/10/18 04:34:33;;;;;;;;;57.00;46.50;;;;;0.35;100.00;99837.31;6278373;20;2871153;-44
2023/10/18 04:37:05;;;;;;;;;56.00;45.00;;;;;0.12;100.00;99833.28;6268601;20;2871111;-44
2023/10/18 04:39:35;;;;;;;;;50.67;41.67;;;;;-0.10;100.00;99831.91;6283722;20;2876413;-45
2023/10/18 04:42:06;;;;;;;;;50.50;43.00;;;;;0.46;99.61;99835.34;6313385;20;2853471;-44
2023/10/18 04:44:35;;;;;;;;;65.00;51.50;;;;;-0.15;99.97;99826.69;6280801;20;2851321;-44
2023/10/18 04:47:04;;;;;;;;;52.50;44.00;;;;;-0.20;100.00;99830.31;6280280;20;2876352;-43
2023/10/18 04:49:36;;;;;;;;;61.50;49.00;;;;;-0.28;100.00;99839.19;6280071;20;2863009;-44
2023/10/18 04:52:09;;;;;;;;;62.00;48.00;;;;;-0.32;100.00;99840.13;6280163;20;2860706;-44
2023/10/18 04:54:38;;;;;;;;;65.00;53.00;;;;;-0.70;100.00;99843.31;6272810;20;2503547;-44
2023/10/18 04:57:11;;;;;;;;;58.50;47.00;;;;;-0.44;100.00;99840.31;6276028;20;2877368;-43
2023/10/18 04:59:45;;;;;;;;;70.33;48.67;;;;;-0.17;100.00;99838.16;6278696;20;2893119;-44
2023/10/18 05:02:17;;;;;;;;;62.00;46.00;;;;;-0.44;100.00;99837.69;6309321;20;2492997;-45
2023/10/18 05:04:46;;;;;;;;;57.00;49.00;;;;;-0.70;100.00;99838.91;6278665;20;2859781;-49
2023/10/18 05:07:16;;;;;;;;;55.00;49.00;;;;;-0.61;100.00;99843.19;6279956;20;2838839;-44
2023/10/18 05:09:45;;;;;;;;;63.50;47.00;;;;;-0.17;100.00;99848.72;6278465;20;2874254;-44
2023/10/18 05:15:09;;;;;;;;;56.00;48.50;;;;;-0.01;100.00;99850.22;6280350;20;2857871;-44
2023/10/18 05:17:43;;;;;;;;;67.50;52.00;;;;;-0.06;98.66;99852.91;6280368;20;2873216;-43
2023/10/18 05:20:22;;;;;;;;;63.00;48.00;;;;;-0.22;98.63;99857.56;6279827;20;2870102;-44
2023/10/18 05:22:52;;;;;;;;;63.00;51.00;;;;;-0.37;100.00;99857.81;6279925;20;2863975;-43
2023/10/18 05:25:23;;;;;;;;;63.00;49.50;;;;;-0.02;98.40;99861.69;6281048;20;2863997;-44
2023/10/18 05:31:25;;;;;;;;;61.50;50.00;;;;;-0.24;98.15;99864.66;6274753;20;2499246;-44
2023/10/18 05:34:47;;;;;;;;;59.50;45.50;;;;;0.00;98.61;99857.25;6273831;20;2881590;-45
2023/10/18 05:42:00;;;;;;;;;116.00;92.25;;;;;0.04;100.00;99851.00;6311277;20;3707685;-46
2023/10/18 05:44:30;;;;;;;;;84.67;63.00;;;;;3.38;93.63;99857.56;6276896;20;3648142;-46
2023/10/18 05:46:59;;;;;;;;;56.50;44.00;;;;;3.71;84.45;99859.19;6309479;20;2861063;-45
2023/10/18 05:49:34;;;;;;;;;61.00;47.00;;;;;1.44;92.60;99846.59;6281738;20;2880492;-46
2023/10/18 05:54:39;;;;;;;;;60.00;45.00;;;;;5.26;79.07;99864.56;6275587;20;2493999;-45
2023/10/18 05:57:10;;;;;;;;;60.00;46.33;;;;;6.74;74.56;99875.59;6277453;20;3622135;-45
2023/10/18 05:59:41;;;;;;;;;64.67;48.00;;;;;7.31;67.63;99882.91;6310269;20;3635064;-47
2023/10/18 06:02:10;;;;;;;;;57.00;46.00;;;;;8.67;60.02;99886.28;6311096;20;2858696;-45
2023/10/18 06:04:42;;;;;;;;;53.00;40.00;;;;;9.07;57.35;99889.56;6281314;20;2859609;-47
2023/10/18 06:07:13;;;;;;;;;45.00;40.00;;;;;9.38;54.45;99889.69;6278732;20;2855532;-45
2023/10/18 06:09:54;;;;;;;;;55.00;42.00;;;;;9.37;54.88;99887.97;6281081;20;2866030;-45
2023/10/18 06:12:30;;;;;;;;;55.00;44.67;;;;;9.82;54.87;99886.41;6312609;20;2861765;-49
2023/10/18 06:15:10;;;;;;;;;50.00;39.67;;;;;11.16;51.40;99894.81;6307624;20;3622200;-49
2023/10/18 06:20:30;;;;;;;;;54.50;45.00;;;;;9.04;56.74;99895.09;6311117;20;2854511;-50
2023/10/18 06:23:09;;;;;;;;;58.00;47.50;;;;;9.01;56.18;99899.66;6279051;20;2873178;-44
2023/10/18 06:25:49;;;;;;;;;179.25;167.25;;;;;9.62;54.20;99905.41;6279678;20;4498135;-47
2023/10/18 06:28:21;;;;;;;;;57.75;44.50;;;;;11.90;51.22;99912.66;6280157;20;3630483;-46
2023/10/18 06:30:52;;;;;;;;;34.67;32.33;;;;;12.35;48.43;99910.66;6313687;20;3600416;-44
2023/10/18 06:33:22;;;;;;;;;35.00;33.00;;;;;13.21;46.20;99910.28;6278705;20;2850331;-46
2023/10/18 06:35:51;;;;;;;;;30.33;30.00;;;;;13.26;46.85;99916.25;6279668;20;3591990;-43
2023/10/18 06:38:23;;;;;;;;;40.00;35.67;;;;;13.79;45.82;99916.16;6279472;20;2853433;-43
2023/10/18 06:43:36;;;;;;;;;43.67;37.33;;;;;15.05;45.32;99918.56;6278955;20;2873344;-44
2023/10/18 06:46:08;;;;;;;;;54.00;43.00;;;;;15.17;43.40;99921.31;6308452;20;3619011;-45
2023/10/18 06:48:38;;;;;;;;;53.67;43.33;;;;;14.63;44.46;99912.72;6313812;20;3606525;-45
2023/10/18 06:51:17;;;;;;;;;46.50;39.00;;;;;13.79;47.46;99913.44;6281230;20;2856553;-45
2023/10/18 06:53:50;;;;;;;;;32.00;30.33;;;;;13.91;46.12;99909.88;6282277;20;3599227;-46
2023/10/18 06:56:26;;;;;;;;;43.00;37.00;;;;;7.04;72.82;99904.56;6277382;20;2858604;-46
2023/10/18 06:59:04;;;;;;;;;26.50;22.00;;;;;6.73;78.99;99908.53;6277802;20;2847162;-44
2023/10/18 07:01:41;;;;;;;;;34.00;31.00;;;;;6.90;78.17;99904.28;6278366;20;2862946;-46
2023/10/18 07:07:13;;;;;;;;;63.33;50.00;;;;;6.30;83.33;99910.31;6272458;20;2874383;-46
2023/10/18 07:09:43;;;;;;;;;39.00;34.67;;;;;7.44;78.82;99900.13;6309491;20;2869147;-45
2023/10/18 07:12:13;;;;;;;;;43.33;37.00;;;;;7.53;78.73;99902.41;6311131;20;3604474;-44
2023/10/18 07:14:42;;;;;;;;;49.33;38.00;;;;;7.76;76.99;99905.78;6278265;20;3625439;-46
2023/10/18 07:17:13;;;;;;;;;44.50;36.50;;;;;7.55;77.99;99905.84;6311170;20;2862884;-45
2023/10/18 07:19:48;;;;;;;;;41.50;37.50;;;;;8.09;76.49;99906.03;6283709;20;2844162;-46
2023/10/18 07:22:19;;;;;;;;;47.33;35.67;;;;;8.20;77.53;99900.16;6285018;20;2885776;-48
2023/10/18 07:24:59;;;;;;;;;43.00;38.50;;;;;7.80;78.86;99910.06;6315650;20;2860724;-44
2023/10/18 07:27:30;;;;;;;;;45.50;37.00;;;;;8.15;79.93;99903.03;6281156;20;2869116;-47
2023/10/18 07:30:00;;;;;;;;;45.00;34.67;;;;;8.12;77.98;99906.72;6284389;20;2878387;-49
2023/10/18 07:32:31;;;;;;;;;44.00;34.50;;;;;8.89;75.87;99897.59;6314074;20;2858322;-48
2023/10/18 07:35:00;;;;;;;;;32.00;31.00;;;;;8.59;77.86;99901.84;6288198;20;3593003;-46
2023/10/18 07:37:43;;;;;;;;;23.67;23.33;;;;;8.69;79.05;99893.28;6281173;20;2847188;-47
2023/10/18 07:40:21;;;;;;;;;24.67;24.67;;;;;8.34;79.61;99882.47;6317373;20;3592004;-45
2023/10/18 07:42:51;;;;;;;;;22.00;17.50;;;;;9.17;77.00;99880.97;6284174;20;2842000;-45
2023/10/18 07:45:23;;;;;;;;;25.00;23.50;;;;;8.84;76.90;99896.97;6287024;20;2849414;-45
2023/10/18 07:47:55;;;;;;;;;25.00;23.00;;;;;7.79;78.42;99881.59;6284270;20;2841130;-46
2023/10/18 07:50:41;;;;;;;;;22.00;22.00;;;;;9.25;75.19;99891.28;6286459;20;2845133;-46
2023/10/18 07:53:13;;;;;;;;;23.50;23.50;;;;;9.73;73.24;99894.09;6284172;20;2837923;-45
2023/10/18 07:55:43;;;;;;;;;27.67;25.00;;;;;9.31;74.34;99890.94;6280556;20;2852483;-46
2023/10/18 07:58:17;;;;;;;;;26.67;25.00;;;;;8.99;76.39;99896.19;6319905;20;3573219;-45
2023/10/18 08:01:10;;;;;;;;;28.33;27.00;;;;;9.65;73.39;99895.38;6281891;20;2847452;-47
2023/10/18 08:03:42;;;;;;;;;24.50;23.50;;;;;9.34;74.65;99898.81;6316491;20;2844021;-49
2023/10/18 08:06:26;;;;;;;;;30.50;26.00;;;;;9.55;73.06;99893.28;6283315;20;2853526;-47
2023/10/18 08:08:55;;;;;;;;;18.50;17.50;;;;;8.93;78.48;99893.84;6284877;20;2827360;-47
2023/10/18 08:11:25;;;;;;;;;25.00;23.67;;;;;9.98;73.54;99880.16;6286501;20;2852497;-48
2023/10/18 08:13:54;;;;;;;;;26.33;25.00;;;;;9.76;73.97;99886.72;6317929;20;3590360;-46
2023/10/18 08:16:27;;;;;;;;;26.67;25.00;;;;;10.30;70.93;99881.94;6281160;20;2857882;-47
2023/10/18 08:18:57;;;;;;;;;22.67;22.67;;;;;10.07;72.51;99885.03;6316024;20;2836886;-46
2023/10/18 08:21:26;;;;;;;;;25.00;24.00;;;;;10.10;73.01;99885.72;6314682;20;2848213;-45
2023/10/18 08:24:07;;;;;;;;;27.00;26.00;;;;;10.60;70.45;99880.25;6283953;20;2849267;-47
2023/10/18 08:26:46;;;;;;;;;25.00;25.00;;;;;10.20;68.64;99875.34;6282936;20;2852373;-47
2023/10/18 08:29:16;;;;;;;;;27.00;24.50;;;;;10.31;69.26;99875.63;6285954;20;2856908;-45
2023/10/18 08:31:55;;;;;;;;;26.00;24.33;;;;;10.79;67.99;99882.72;6284731;20;2843367;-46
2023/10/18 08:34:24;;;;;;;;;22.50;21.50;;;;;10.30;71.63;99881.09;6314941;20;2832655;-46
2023/10/18 08:37:01;;;;;;;;;26.00;24.33;;;;;10.55;68.21;99872.47;6282949;20;2850408;-47
2023/10/18 08:39:39;;;;;;;;;29.00;21.33;;;;;11.08;68.35;99868.41;6316967;20;3604505;-47
2023/10/18 08:42:14;;;;;;;;;26.00;22.50;;;;;11.25;68.13;99869.22;6282325;20;2839852;-45
2023/10/18 08:44:44;;;;;;;;;25.00;22.00;;;;;11.49;65.65;99875.75;6282168;20;2832611;-45
2023/10/18 08:47:18;;;;;;;;;17.00;17.00;;;;;10.59;67.96;99876.72;6283501;20;2829545;-45
2023/10/18 08:49:50;;;;;;;;;22.00;22.00;;;;;10.59;69.14;99868.66;6283314;20;2830519;-46
2023/10/18 08:52:21;;;;;;;;;22.00;21.00;;;;;11.68;65.52;99872.75;6279633;20;2829449;-45
2023/10/18 08:54:51;;;;;;;;;5.50;5.50;;;;;11.73;64.32;99869.78;6289402;20;2747168;-47
2023/10/18 08:57:36;;;;;;;;;24.33;22.00;;;;;10.33;68.66;99870.16;6284270;20;3574229;-47
2023/10/18 09:02:57;;;;;;;;;25.00;21.50;;;;;11.62;64.71;99874.00;6315536;20;2844096;-47
2023/10/18 09:05:26;;;;;;;;;21.67;21.00;;;;;11.92;61.80;99864.97;6282799;20;2844053;-45
2023/10/18 09:08:05;;;;;;;;;20.50;19.50;;;;;10.91;65.17;99868.56;6311721;20;2500303;-46
2023/10/18 09:16:01;;;;;;;;;21.00;21.00;;;;;12.14;60.38;99868.97;6281772;20;2823339;-46
2023/10/18 09:18:31;;;;;;;;;27.00;22.00;;;;;12.09;59.96;99858.53;6283645;20;2837775;-49
2023/10/18 09:21:09;;;;;;;;;22.00;22.00;;;;;12.10;59.22;99857.56;6284130;20;2842976;-46
2023/10/18 09:23:40;;;;;;;;;24.00;21.50;;;;;12.14;59.10;99858.19;6283187;20;2827353;-49
2023/10/18 09:26:12;;;;;;;;;15.50;15.50;;;;;12.25;59.05;99850.31;6284551;20;2500233;-51
2023/10/18 09:28:42;;;;;;;;;26.33;23.33;;;;;12.04;58.86;99852.56;6283275;20;2841064;-48
2023/10/18 09:31:21;;;;;;;;;21.33;19.00;;;;;12.07;57.63;99847.00;6317136;20;3569048;-47
2023/10/18 09:33:56;;;;;;;;;23.00;21.00;;;;;12.84;56.23;99852.63;6314558;20;2846292;-47
2023/10/18 09:36:27;;;;;;;;;20.00;20.00;;;;;12.63;57.13;99844.19;6279788;20;2838863;-45
2023/10/18 09:38:57;;;;;;;;;20.00;20.00;;;;;12.91;56.67;99852.13;6285524;20;3565994;-47
2023/10/18 09:41:30;;;;;;;;;23.00;22.33;;;;;12.69;55.76;99849.16;6314765;20;3580497;-44
2023/10/18 09:44:01;;;;;;;;;22.00;21.00;;;;;12.17;56.98;99852.66;6278373;20;2500233;-46
2023/10/18 09:46:31;;;;;;;;;19.00;18.00;;;;;11.90;56.79;99842.72;6279163;20;2830497;-44
2023/10/18 09:49:04;;;;;;;;;19.00;18.50;;;;;12.79;55.92;99834.09;6280766;20;2839842;-46
2023/10/18 09:51:36;;;;;;;;;25.50;20.50;;;;;13.25;54.22;99827.34;6280751;20;2829513;-44
2023/10/18 09:54:07;;;;;;;;;20.00;19.00;;;;;12.62;54.90;99831.69;6282979;20;2834648;-45
2023/10/18 09:56:37;;;;;;;;;18.50;16.50;;;;;13.02;54.38;99821.72;6276969;20;2500321;-45
2023/10/18 09:59:12;;;;;;;;;21.00;18.00;;;;;13.25;53.56;99830.91;6279975;20;2835721;-44
2023/10/18 10:04:17;;;;;;;;;22.33;22.33;;;;;12.89;55.92;99824.41;6278917;20;2848226;-44
2023/10/18 10:06:46;;;;;;;;;20.00;19.00;;;;;13.32;54.29;99826.84;6314908;20;3564856;-46
2023/10/18 10:09:17;;;;;;;;;20.00;17.00;;;;;13.16;52.82;99818.06;6311215;20;2836763;-47
2023/10/18 10:11:48;;;;;;;;;25.00;19.00;;;;;13.27;53.72;99814.63;6283279;20;2836736;-48
2023/10/18 10:14:21;;;;;;;;;22.00;18.00;;;;;13.35;52.76;99815.84;6285570;20;3566292;-46
2023/10/18 10:17:07;;;;;;;;;20.67;19.00;;;;;13.41;52.61;99816.38;6313075;20;3572210;-44
2023/10/18 10:19:47;;;;;;;;;22.00;17.00;;;;;13.74;51.99;99816.63;6310940;20;2483721;-45
2023/10/18 10:22:24;;;;;;;;;22.50;17.50;;;;;13.97;51.70;99806.00;6279642;20;2829494;-45
2023/10/18 10:25:04;;;;;;;;;19.50;19.50;;;;;13.02;53.00;99796.63;6280902;20;2836781;-44
2023/10/18 10:27:53;;;;;;;;;23.00;18.50;;;;;13.69;51.75;99789.13;6283065;20;2845119;-46
2023/10/18 10:33:12;;;;;;;;;17.50;15.50;;;;;14.26;50.11;99783.06;6281939;20;2819176;-44
2023/10/18 10:35:46;;;;;;;;;20.00;17.33;;;;;13.30;51.37;99780.25;6280457;20;2500284;-47
2023/10/18 10:38:21;;;;;;;;;15.00;12.33;;;;;14.12;47.48;99780.56;6310610;20;3522251;-44
2023/10/18 10:44:21;;;;;;;;;12.67;11.33;;;;;14.15;48.98;99779.47;6312090;20;3536722;-47
2023/10/18 10:46:51;;;;;;;;;20.00;18.00;;;;;14.05;48.82;99781.97;6313400;20;3564864;-45
2023/10/18 10:49:58;;;;;;;;;18.67;18.67;;;;;14.04;48.71;99764.06;6314852;20;3575357;-44
2023/10/18 10:52:30;;;;;;;;;13.00;13.00;;;;;13.82;48.49;99759.38;6282824;20;3521098;-44
2023/10/18 10:55:22;;;;;;;;;16.00;16.00;;;;;14.14;48.80;99748.91;6294724;20;2691960;-44
2023/10/18 10:57:53;;;;;;;;;12.00;12.00;;;;;14.47;47.84;99756.28;6282831;20;2795092;-44
2023/10/18 11:00:22;;;;;;;;;14.00;13.00;;;;;13.88;48.61;99752.69;6314753;20;2810816;-45
2023/10/18 11:02:54;;;;;;;;;15.00;14.00;;;;;14.23;48.91;99745.50;6287682;20;2804456;-44
2023/10/18 11:05:26;;;;;;;;;13.00;11.33;;;;;13.53;49.10;99748.94;6284720;20;3525390;-45
2023/10/18 11:07:55;;;;;;;;;12.00;12.00;;;;;13.90;47.89;99742.63;6317779;20;3514983;-44
2023/10/18 11:10:27;;;;;;;;;9.00;9.00;;;;;13.16;47.18;99734.47;6345278;20;2735702;-45
2023/10/18 11:12:56;;;;;;;;;11.00;9.67;;;;;13.98;46.03;99740.22;6316453;20;2776308;-46
2023/10/18 11:15:27;;;;;;;;;10.00;10.00;;;;;14.48;45.73;99740.91;6314469;20;2788936;-45
2023/10/18 11:18:09;;;;;;;;;11.00;11.00;;;;;14.38;46.38;99739.94;6320970;20;2819161;-47
2023/10/18 11:23:29;;;;;;;;;12.00;11.00;;;;;14.41;44.51;99726.19;6284849;20;2796327;-47
2023/10/18 11:25:59;;;;;;;;;7.60;6.20;;;;;14.74;43.75;99729.97;6311660;20;2748199;-46
2023/10/18 11:28:30;;;;;;;;;8.00;8.00;;;;;14.31;44.45;99730.56;6323958;20;2746168;-45
2023/10/18 11:31:02;;;;;;;;;10.25;9.25;;;;;14.55;44.72;99723.28;6312952;20;2057671;-46
2023/10/18 11:33:59;;;;;;;;;10.00;10.00;;;;;14.93;44.01;99719.44;6319846;20;2781515;-45
2023/10/18 11:36:28;;;;;;;;;10.50;10.50;;;;;14.48;44.11;99720.19;6290639;20;2792107;-46
2023/10/18 11:41:44;;;;;;;;;15.00;11.00;;;;;15.00;44.15;99703.59;6320433;20;2791980;-46
2023/10/18 11:44:20;;;;;;;;;12.33;12.33;;;;;14.86;44.84;99701.97;6285810;20;3520087;-48
2023/10/18 11:47:00;;;;;;;;;15.67;13.00;;;;;13.94;46.43;99696.41;6313945;20;3528478;-47
2023/10/18 11:49:42;;;;;;;;;14.00;12.00;;;;;14.43;45.64;99689.97;6278520;20;3539904;-46
2023/10/18 11:52:22;;;;;;;;;16.67;14.00;;;;;14.51;45.74;99694.78;6316912;20;3528496;-47
2023/10/18 11:54:52;;;;;;;;;16.67;13.67;;;;;14.33;46.72;99685.41;6284874;20;3545057;-49
2023/10/18 11:57:30;;;;;;;;;12.00;11.33;;;;;14.70;46.16;99689.69;6315185;20;3513858;-45
2023/10/18 12:00:26;;;;;;;;;14.67;14.67;;;;;14.79;45.81;99682.66;6315249;20;3534630;-45
2023/10/18 12:02:55;;;;;;;;;17.00;14.00;;;;;14.97;45.29;99680.34;6282399;20;2494156;-45
2023/10/18 12:05:27;;;;;;;;;20.00;16.50;;;;;14.63;45.96;99668.66;6284351;20;2835768;-44
2023/10/18 12:08:05;;;;;;;;;14.00;14.00;;;;;14.41;46.18;99664.06;6286301;20;2487807;-45
2023/10/18 12:10:34;;;;;;;;;17.00;15.33;;;;;14.71;46.27;99658.94;6285620;20;3551371;-47
2023/10/18 12:13:14;;;;;;;;;15.00;15.00;;;;;14.98;45.46;99665.88;6285028;20;3537817;-46
2023/10/18 12:15:43;;;;;;;;;12.00;11.00;;;;;14.58;46.30;99651.94;6283258;20;3508607;-45
2023/10/18 12:18:14;;;;;;;;;14.00;12.00;;;;;14.30;46.45;99666.69;6320065;20;2798198;-45
2023/10/18 12:20:43;;;;;;;;;15.67;13.67;;;;;14.17;46.49;99662.28;6285021;20;3532704;-46